Time;durP1;ratioP1;P1;durP2;ratioP2;P2;SDS_P1;SDS_P2;PMS_P1;PMS_P2;Temp;Humidity;BMP_temperature;BMP_pressure;BME280_temperature;BME280_humidity;BME280_pressure;Samples;Min_cycle;Max_cycle;Signal;HPM_P1;HPM_P2
2021/12/13 00:04:38;;;;;;;1.75;1.00;;;;;;;;;;10339108;28;20042;-70
2021/12/13 00:09:44;;;;;;;0.37;0.37;;;;;;;;;;10349161;28;20046;-71
2021/12/13 00:14:48;;;;;;;0.77;0.40;;;;;;;;;;10340598;28;20085;-70
2021/12/13 00:19:55;;;;;;;1.67;0.70;;;;;;;;;;10339054;28;20442;-70
2021/12/13 00:25:06;;;;;;;0.40;0.40;;;;;;;;;;10337249;28;20084;-70
2021/12/13 00:30:11;;;;;;;0.50;0.43;;;;;;;;;;10337083;28;20050;-70
2021/12/13 00:35:17;;;;;;;1.33;0.70;;;;;;;;;;10337940;28;20447;-70
2021/12/13 00:40:24;;;;;;;1.70;0.90;;;;;;;;;;10343628;28;20498;-71
2021/12/13 00:45:29;;;;;;;0.87;0.60;;;;;;;;;;10362078;28;20038;-70
2021/12/13 00:50:33;;;;;;;1.20;0.40;;;;;;;;;;10337885;28;20129;-71
2021/12/13 00:55:38;;;;;;;1.53;0.63;;;;;;;;;;10346087;28;20038;-71
2021/12/13 01:00:43;;;;;;;0.97;0.60;;;;;;;;;;10347379;28;20042;-70
2021/12/13 01:06:09;;;;;;;0.73;0.37;;;;;;;;;;10345089;28;20046;-71
2021/12/13 01:11:35;;;;;;;0.30;0.30;;;;;;;;;;10274245;28;20050;-69
2021/12/13 01:16:52;;;;;;;0.30;0.20;;;;;;;;;;10340526;28;20030;-71
2021/12/13 01:22:01;;;;;;;0.73;0.30;;;;;;;;;;10346641;28;20077;-71
2021/12/13 01:27:05;;;;;;;5.63;0.60;;;;;;;;;;10341475;28;20049;-70
2021/12/13 01:32:11;;;;;;;2.60;0.57;;;;;;;;;;10341309;28;20073;-70
2021/12/13 01:37:16;;;;;;;0.20;0.20;;;;;;;;;;10341638;28;20038;-69
2021/12/13 01:42:22;;;;;;;3.37;0.33;;;;;;;;;;10346644;28;20030;-70
2021/12/13 01:47:25;;;;;;;0.73;0.40;;;;;;;;;;10351445;28;20065;-69
2021/12/13 01:52:31;;;;;;;0.82;0.50;;;;;;;;;;10342580;28;20121;-69
2021/12/13 01:57:46;;;;;;;1.03;0.57;;;;;;;;;;10350364;28;20035;-71
2021/12/13 02:02:50;;;;;;;0.97;0.67;;;;;;;;;;10344431;28;20030;-71
2021/12/13 02:07:53;;;;;;;;;;;;;;;;;;10334557;28;20031;-70
2021/12/13 02:13:01;;;;;;;1.60;0.70;;;;;;;;;;10343622;28;19929;-71
2021/12/13 02:18:04;;;;;;;1.70;0.77;;;;;;;;;;10348016;28;20375;-70
2021/12/13 02:23:21;;;;;;;0.63;0.50;;;;;;;;;;10343874;28;20046;-70
2021/12/13 02:28:28;;;;;;;3.73;1.10;;;;;;;;;;10338285;28;20042;-71
2021/12/13 02:33:33;;;;;;;1.97;1.17;;;;;;;;;;10348055;28;20042;-70
2021/12/13 02:38:38;;;;;;;1.53;0.83;;;;;;;;;;10344574;28;20129;-71
2021/12/13 02:43:43;;;;;;;1.13;0.50;;;;;;;;;;10336874;28;20158;-71
2021/12/13 02:48:49;;;;;;;0.87;0.70;;;;;;;;;;10338220;28;20069;-71
2021/12/13 02:53:55;;;;;;;0.47;0.40;;;;;;;;;;10345370;28;20058;-70
2021/12/13 02:58:59;;;;;;;1.97;1.33;;;;;;;;;;10338649;28;20046;-70
2021/12/13 03:04:01;;;;;;;;;;;;;;;;;;10341331;28;20049;-70
2021/12/13 03:09:08;;;;;;;1.47;0.80;;;;;;;;;;10338943;28;20329;-70
2021/12/13 03:14:13;;;;;;;1.73;0.77;;;;;;;;;;10345240;28;20401;-71
2021/12/13 03:19:22;;;;;;;1.37;0.87;;;;;;;;;;10344373;28;20042;-72
2021/12/13 03:24:31;;;;;;;0.20;0.20;;;;;;;;;;10338853;28;20145;-70
2021/12/13 03:29:42;;;;;;;1.70;0.93;;;;;;;;;;10339647;28;20038;-70
2021/12/13 03:34:52;;;;;;;1.20;0.70;;;;;;;;;;10340629;28;20436;-70
2021/12/13 03:39:59;;;;;;;1.03;0.83;;;;;;;;;;10337196;28;20054;-70
2021/12/13 03:45:06;;;;;;;1.70;0.80;;;;;;;;;;10340122;28;20077;-71
2021/12/13 03:50:11;;;;;;;0.60;0.43;;;;;;;;;;10341377;28;20046;-70
2021/12/13 03:55:17;;;;;;;0.63;0.63;;;;;;;;;;10343039;28;20053;-71
2021/12/13 04:00:22;;;;;;;1.33;0.47;;;;;;;;;;10345886;28;20034;-70
2021/12/13 04:05:27;;;;;;;0.77;0.60;;;;;;;;;;10343501;28;20081;-70
2021/12/13 04:10:34;;;;;;;1.07;0.73;;;;;;;;;;10344782;28;20112;-71
2021/12/13 04:15:54;;;;;;;0.17;0.17;;;;;;;;;;10334718;28;20038;-70
2021/12/13 04:21:17;;;;;;;1.00;0.63;;;;;;;;;;10348016;28;20121;-69
2021/12/13 04:26:24;;;;;;;0.35;0.35;;;;;;;;;;10345583;28;20121;-70
2021/12/13 04:31:28;;;;;;;0.30;0.20;;;;;;;;;;10335580;28;20516;-70
2021/12/13 04:36:33;;;;;;;1.13;0.70;;;;;;;;;;10342660;28;20474;-71
2021/12/13 04:41:39;;;;;;;0.50;0.47;;;;;;;;;;10346852;28;20561;-71
2021/12/13 04:46:44;;;;;;;3.20;1.20;;;;;;;;;;10342191;28;20442;-71
2021/12/13 04:51:52;;;;;;;1.73;1.20;;;;;;;;;;10339333;28;20434;-71
2021/12/13 04:56:58;;;;;;;1.37;0.50;;;;;;;;;;10347391;28;20446;-71
2021/12/13 05:02:03;;;;;;;1.13;1.00;;;;;;;;;;10348867;28;20034;-72
2021/12/13 05:07:07;;;;;;;1.50;0.90;;;;;;;;;;10349257;28;20058;-71
2021/12/13 05:12:14;;;;;;;1.67;0.80;;;;;;;;;;10347696;28;20125;-71
2021/12/13 05:17:19;;;;;;;2.20;0.97;;;;;;;;;;10343669;28;20129;-70
2021/12/13 05:22:22;;;;;;;1.03;0.93;;;;;;;;;;10346345;28;20038;-70
2021/12/13 05:27:29;;;;;;;1.10;0.80;;;;;;;;;;10341303;28;20044;-70
2021/12/13 05:32:33;;;;;;;1.73;1.00;;;;;;;;;;10346517;28;20110;-70
2021/12/13 05:37:36;;;;;;;;;;;;;;;;;;10344654;28;20246;-71
2021/12/13 05:42:42;;;;;;;2.80;1.20;;;;;;;;;;10342672;28;20800;-69
2021/12/13 05:47:54;;;;;;;1.53;0.97;;;;;;;;;;10346839;28;20049;-70
2021/12/13 05:53:02;;;;;;;1.70;0.87;;;;;;;;;;10360011;22;20136;-70
2021/12/13 05:58:07;;;;;;;1.37;1.00;;;;;;;;;;10353097;28;20403;-70
2021/12/13 06:03:16;;;;;;;1.40;1.00;;;;;;;;;;10322479;28;20046;-70
2021/12/13 06:08:21;;;;;;;1.70;1.20;;;;;;;;;;10306831;28;20392;-68
2021/12/13 06:13:46;;;;;;;5.40;1.77;;;;;;;;;;10311811;28;20046;-68
2021/12/13 06:19:00;;;;;;;2.40;1.60;;;;;;;;;;10299597;28;20062;-70
2021/12/13 06:24:03;;;;;;;1.53;1.03;;;;;;;;;;10313207;28;20380;-69
2021/12/13 06:29:08;;;;;;;2.53;1.40;;;;;;;;;;10313642;28;20035;-70
2021/12/13 06:34:14;;;;;;;3.30;2.20;;;;;;;;;;10310470;28;20093;-68
2021/12/13 06:39:18;;;;;;;1.77;0.90;;;;;;;;;;10305618;28;20038;-68
2021/12/13 06:44:24;;;;;;;4.70;2.35;;;;;;;;;;10315180;28;20046;-69
2021/12/13 06:49:30;;;;;;;4.60;2.33;;;;;;;;;;10311747;28;20516;-69
2021/12/13 06:54:39;;;;;;;7.27;2.23;;;;;;;;;;10330437;28;20494;-68
2021/12/13 06:59:49;;;;;;;2.83;1.77;;;;;;;;;;10314097;28;20030;-69
2021/12/13 07:05:01;;;;;;;3.83;1.77;;;;;;;;;;10308106;28;20089;-69
2021/12/13 07:10:06;;;;;;;8.13;2.70;;;;;;;;;;10306591;28;20042;-67
2021/12/13 07:15:21;;;;;;;5.47;2.50;;;;;;;;;;10308169;28;20113;-68
2021/12/13 07:20:24;;;;;;;9.37;3.03;;;;;;;;;;10302781;28;20038;-69
2021/12/13 07:25:28;;;;;;;;;;;;;;;;;;10308618;28;20046;-69
2021/12/13 07:30:33;;;;;;;2.25;1.17;;;;;;;;;;10310627;28;19959;-70
2021/12/13 07:35:41;;;;;;;4.73;2.03;;;;;;;;;;10314001;28;20043;-69
2021/12/13 07:40:45;;;;;;;2.97;1.47;;;;;;;;;;10303770;28;20035;-68
2021/12/13 07:45:53;;;;;;;5.03;2.25;;;;;;;;;;10311342;28;20424;-69
2021/12/13 07:50:58;;;;;;;7.57;2.87;;;;;;;;;;10308662;28;20486;-69
2021/12/13 07:56:02;;;;;;;5.93;3.03;;;;;;;;;;10312859;28;20042;-68
2021/12/13 08:01:10;;;;;;;6.70;2.50;;;;;;;;;;10313006;28;20039;-67
2021/12/13 08:06:13;;;;;;;5.47;2.60;;;;;;;;;;10303642;28;20038;-70
2021/12/13 08:11:18;;;;;;;3.73;1.67;;;;;;;;;;10305243;28;20457;-68
2021/12/13 08:16:28;;;;;;;2.45;1.30;;;;;;;;;;10318798;28;20080;-69
2021/12/13 08:21:31;;;;;;;5.37;2.33;;;;;;;;;;10318316;28;20062;-69
2021/12/13 08:26:37;;;;;;;4.17;1.80;;;;;;;;;;10319253;28;20039;-67
2021/12/13 08:31:41;;;;;;;5.37;2.40;;;;;;;;;;10309073;28;20149;-67
2021/12/13 08:36:43;;;;;;;;;;;;;;;;;;10307148;28;20666;-66
2021/12/13 08:41:49;;;;;;;4.00;1.83;;;;;;;;;;10309099;28;20362;-68
2021/12/13 08:46:58;;;;;;;2.87;1.03;;;;;;;;;;10315416;28;20109;-67
2021/12/13 08:52:04;;;;;;;5.00;2.07;;;;;;;;;;10300284;28;20125;-68
2021/12/13 08:57:10;;;;;;;4.47;2.20;;;;;;;;;;10309805;28;20049;-70
2021/12/13 09:02:14;;;;;;;4.27;1.70;;;;;;;;;;10302621;28;20057;-72
2021/12/13 09:07:21;;;;;;;6.70;2.25;;;;;;;;;;10316943;28;22790;-70
2021/12/13 09:12:28;;;;;;;6.28;2.13;;;;;;;;;;10305342;28;20046;-69
2021/12/13 09:17:36;;;;;;;4.47;2.17;;;;;;;;;;10321600;28;20066;-68
2021/12/13 09:22:40;;;;;;;2.22;1.45;;;;;;;;;;10305307;28;20124;-69
2021/12/13 09:27:46;;;;;;;5.47;2.30;;;;;;;;;;10308667;28;20035;-68
2021/12/13 09:32:52;;;;;;;4.15;2.00;;;;;;;;;;10307110;28;20039;-68
2021/12/13 09:37:55;;;;;;;1.35;0.80;;;;;;;;;;10314016;28;20042;-68
2021/12/13 09:42:58;;;;;;;2.63;1.85;;;;;;;;;;10312042;28;20042;-68
2021/12/13 09:48:14;;;;;;;4.97;2.38;;;;;;;;;;10307428;28;20043;-67
2021/12/13 09:53:17;;;;;;;7.20;2.17;;;;;;;;;;10309184;28;20051;-68
2021/12/13 09:58:21;;;;;;;4.23;2.27;;;;;;;;;;10304002;28;20588;-67
2021/12/13 10:03:26;;;;;;;3.88;1.92;;;;;;;;;;10311158;28;20093;-68
2021/12/13 10:08:31;;;;;;;3.83;2.03;;;;;;;;;;10300558;28;20043;-69
2021/12/13 10:13:37;;;;;;;6.47;2.60;;;;;;;;;;10315392;28;20496;-67
2021/12/13 10:18:42;;;;;;;4.45;2.00;;;;;;;;;;10304689;28;20042;-67
2021/12/13 10:23:48;;;;;;;3.55;1.80;;;;;;;;;;10305916;28;20035;-66
2021/12/13 10:29:00;;;;;;;5.43;2.20;;;;;;;;;;10304604;28;20447;-67
2021/12/13 10:34:06;;;;;;;3.80;2.17;;;;;;;;;;10310055;28;20038;-68
2021/12/13 10:39:11;;;;;;;4.43;2.35;;;;;;;;;;10311415;28;20097;-68
2021/12/13 10:44:38;;;;;;;4.90;2.50;;;;;;;;;;10301598;28;20050;-68
2021/12/13 10:49:45;;;;;;;6.00;2.83;;;;;;;;;;10309376;28;20037;-66
2021/12/13 10:54:52;;;;;;;5.30;2.97;;;;;;;;;;10310011;28;20041;-67
2021/12/13 10:59:55;;;;;;;6.68;2.83;;;;;;;;;;10304991;28;20034;-67
2021/12/13 11:05:01;;;;;;;5.30;2.65;;;;;;;;;;10308138;28;20050;-68
2021/12/13 11:10:05;;;;;;;8.35;3.60;;;;;;;;;;10310909;28;20042;-67
2021/12/13 11:15:11;;;;;;;5.68;2.58;;;;;;;;;;10312922;28;20120;-68
2021/12/13 11:20:19;;;;;;;5.57;3.30;;;;;;;;;;10305979;28;20410;-69
2021/12/13 11:25:24;;;;;;;5.35;2.88;;;;;;;;;;10297309;28;20046;-68
2021/12/13 11:30:29;;;;;;;10.27;3.70;;;;;;;;;;10306257;28;20446;-68
2021/12/13 11:35:46;;;;;;;6.88;2.67;;;;;;;;;;10299462;28;20101;-69
2021/12/13 11:41:05;;;;;;;5.45;2.58;;;;;;;;;;10259142;28;20063;-68
2021/12/13 11:46:19;;;;;;;14.40;6.22;;;;;;;;;;10302536;28;20127;-69
2021/12/13 11:51:46;;;;;;;5.95;2.10;;;;;;;;;;10305703;28;20065;-68
2021/12/13 11:56:57;;;;;;;7.88;3.30;;;;;;;;;;10290247;23;20109;-76
2021/12/13 12:02:05;;;;;;;4.78;2.40;;;;;;;;;;10309813;28;20086;-73
2021/12/13 12:07:30;;;;;;;5.22;2.05;;;;;;;;;;10298900;28;20038;-72
2021/12/13 12:12:51;;;;;;;5.05;2.40;;;;;;;;;;10278011;28;20070;-73
2021/12/13 12:17:56;;;;;;;5.18;2.63;;;;;;;;;;10276040;28;20498;-78
2021/12/13 12:23:00;;;;;;;6.93;2.60;;;;;;;;;;10273856;28;20050;-74
2021/12/13 12:28:04;;;;;;;7.25;3.00;;;;;;;;;;10277963;28;20066;-73
2021/12/13 12:33:11;;;;;;;6.30;3.00;;;;;;;;;;10280640;28;20408;-72
2021/12/13 12:38:20;;;;;;;7.82;3.35;;;;;;;;;;10288461;28;20126;-72
2021/12/13 12:43:24;;;;;;;7.68;3.20;;;;;;;;;;10280672;28;20073;-73
2021/12/13 12:48:31;;;;;;;6.82;3.35;;;;;;;;;;10273419;28;20074;-72
2021/12/13 12:53:42;;;;;;;8.50;3.58;;;;;;;;;;10279059;28;20130;-73
2021/12/13 12:58:51;;;;;;;10.77;3.75;;;;;;;;;;10269507;28;20086;-73
2021/12/13 13:04:06;;;;;;;8.07;3.67;;;;;;;;;;10284545;28;20273;-74
2021/12/13 13:09:10;;;;;;;7.00;3.40;;;;;;;;;;10286515;28;20521;-73
2021/12/13 13:14:14;;;;;;;11.80;3.80;;;;;;;;;;10281149;28;20101;-73
2021/12/13 13:19:16;;;;;;;;;;;;;;;;;;10287759;28;20038;-73
2021/12/13 13:24:21;;;;;;;7.85;3.55;;;;;;;;;;10282632;28;19981;-72
2021/12/13 13:29:24;;;;;;;10.18;4.07;;;;;;;;;;10281657;28;20039;-73
2021/12/13 13:34:30;;;;;;;8.90;3.67;;;;;;;;;;10284627;28;20455;-74
2021/12/13 13:39:39;;;;;;;8.50;3.80;;;;;;;;;;10287461;28;20046;-72
2021/12/13 13:44:44;;;;;;;10.07;4.15;;;;;;;;;;10287360;28;20035;-73
2021/12/13 13:49:47;;;;;;;;;;;;;;;;;;10280901;28;20789;-73
2021/12/13 13:54:53;;;;;;;22.63;7.90;;;;;;;;;;10291969;28;19987;-73
2021/12/13 13:59:57;;;;;;;7.07;3.13;;;;;;;;;;10301084;28;20042;-72
2021/12/13 14:05:01;;;;;;;9.93;4.30;;;;;;;;;;10303091;28;20706;-71
2021/12/13 14:10:08;;;;;;;13.52;5.40;;;;;;;;;;10307994;28;20039;-72
2021/12/13 14:15:12;;;;;;;11.60;4.88;;;;;;;;;;10293528;28;20055;-72
2021/12/13 14:20:18;;;;;;;14.60;5.18;;;;;;;;;;10279170;28;20031;-73
2021/12/13 14:25:28;;;;;;;16.20;5.50;;;;;;;;;;10274642;28;20160;-74
2021/12/13 14:30:33;;;;;;;10.05;4.43;;;;;;;;;;10269619;28;20049;-74
2021/12/13 14:35:35;;;;;;;12.82;5.05;;;;;;;;;;10278010;28;20467;-74
2021/12/13 14:40:45;;;;;;;14.57;5.05;;;;;;;;;;10276421;28;20035;-74
2021/12/13 14:45:48;;;;;;;11.48;4.97;;;;;;;;;;10283495;28;20044;-74
2021/12/13 14:50:52;;;;;;;13.57;5.10;;;;;;;;;;10282759;28;20062;-73
2021/12/13 14:55:58;;;;;;;13.50;5.03;;;;;;;;;;10284004;28;20499;-74
2021/12/13 15:01:02;;;;;;;14.52;5.60;;;;;;;;;;10268558;28;20070;-74
2021/12/13 15:06:06;;;;;;;12.93;5.22;;;;;;;;;;10285136;28;20104;-75
2021/12/13 15:11:12;;;;;;;19.33;6.80;;;;;;;;;;10283402;28;20047;-72
2021/12/13 15:16:15;;;;;;;13.93;5.90;;;;;;;;;;10268336;28;20105;-73
2021/12/13 15:21:19;;;;;;;14.73;5.95;;;;;;;;;;10270893;28;20039;-75
2021/12/13 15:26:27;;;;;;;13.85;5.47;;;;;;;;;;10274897;28;20094;-73
2021/12/13 15:31:34;;;;;;;13.73;6.22;;;;;;;;;;10279431;28;20070;-74
2021/12/13 15:36:37;;;;;;;14.77;5.80;;;;;;;;;;10284071;28;20138;-72
2021/12/13 15:41:42;;;;;;;23.98;8.13;;;;;;;;;;10294797;28;20511;-73
2021/12/13 15:46:51;;;;;;;15.10;6.25;;;;;;;;;;10277746;28;20105;-74
2021/12/13 15:51:55;;;;;;;16.58;6.07;;;;;;;;;;10283785;28;20159;-73
2021/12/13 15:56:59;;;;;;;;;;;;;;;;;;10285435;28;20177;-73
2021/12/13 16:02:04;;;;;;;15.43;6.00;;;;;;;;;;10287700;28;19929;-72
2021/12/13 16:07:09;;;;;;;18.55;6.88;;;;;;;;;;10257938;28;20420;-73
2021/12/13 16:12:11;;;;;;;;;;;;;;;;;;10282480;28;20458;-73
2021/12/13 16:17:17;;;;;;;29.52;9.70;;;;;;;;;;10275282;28;20058;-73
2021/12/13 16:22:31;;;;;;;17.05;6.38;;;;;;;;;;10288931;28;20070;-72
2021/12/13 16:28:09;;;;;;;14.27;5.85;;;;;;;;;;10282465;28;20053;-72
2021/12/13 16:33:15;;;;;;;17.40;6.90;;;;;;;;;;10275916;28;20047;-72
2021/12/13 16:38:18;;;;;;;16.42;5.97;;;;;;;;;;10284110;28;20045;-72
2021/12/13 16:43:27;;;;;;;11.73;3.55;;;;;;;;;;10288145;28;20047;-73
2021/12/13 16:48:33;;;;;;;17.23;5.95;;;;;;;;;;10285994;28;20125;-73
2021/12/13 16:53:36;;;;;;;17.20;6.25;;;;;;;;;;10276359;28;20596;-73
2021/12/13 16:58:40;;;;;;;16.80;5.57;;;;;;;;;;10287310;28;20082;-72
2021/12/13 17:03:45;;;;;;;13.30;4.60;;;;;;;;;;10271539;28;20402;-73
2021/12/13 17:08:52;;;;;;;18.38;5.47;;;;;;;;;;10289742;28;20043;-72
2021/12/13 17:13:56;;;;;;;14.65;5.07;;;;;;;;;;10272583;28;20046;-72
2021/12/13 17:19:03;;;;;;;21.58;7.88;;;;;;;;;;10298802;28;20114;-72
2021/12/13 17:24:07;;;;;;;25.30;7.78;;;;;;;;;;10281213;28;20126;-72
2021/12/13 17:29:15;;;;;;;24.15;6.43;;;;;;;;;;10272751;28;20085;-72
2021/12/13 17:34:42;;;;;;;10.10;3.03;;;;;;;;;;10294379;28;20043;-72
2021/12/13 17:39:47;;;;;;;19.15;6.10;;;;;;;;;;10267338;28;20364;-72
2021/12/13 17:45:07;;;;;;;15.45;5.90;;;;;;;;;;10277851;28;20157;-73
2021/12/13 17:50:21;;;;;;;19.63;6.05;;;;;;;;;;10284027;28;20035;-72
2021/12/13 17:55:26;;;;;;;16.33;6.47;;;;;;;;;;10283649;28;20499;-77
2021/12/13 18:00:33;;;;;;;17.58;6.63;;;;;;;;;;10296267;28;20400;-75
2021/12/13 18:05:36;;;;;;;18.25;6.40;;;;;;;;;;10288772;28;20153;-77
2021/12/13 18:10:41;;;;;;;14.85;5.20;;;;;;;;;;10282417;28;20055;-73
2021/12/13 18:15:45;;;;;;;15.48;5.38;;;;;;;;;;10291229;28;20101;-73
2021/12/13 18:20:49;;;;;;;12.40;4.82;;;;;;;;;;10279186;28;20042;-72
2021/12/13 18:25:55;;;;;;;14.13;4.68;;;;;;;;;;10292311;28;20057;-73
2021/12/13 18:31:04;;;;;;;9.07;3.53;;;;;;;;;;10294249;28;20055;-72
2021/12/13 18:36:08;;;;;;;18.25;5.70;;;;;;;;;;10287018;28;20436;-73
2021/12/13 18:41:12;;;;;;;;;;;;;;;;;;10276815;28;20081;-72
2021/12/13 18:46:29;;;;;;;4.03;1.77;;;;;;;;;;10278959;28;19957;-72
2021/12/13 18:51:38;;;;;;;8.00;3.03;;;;;;;;;;10270951;28;20042;-73
2021/12/13 18:56:41;;;;;;;11.02;2.03;;;;;;;;;;10295108;28;20043;-73
2021/12/13 19:01:45;;;;;;;4.57;1.92;;;;;;;;;;10279454;28;20050;-72
2021/12/13 19:06:53;;;;;;;10.80;3.90;;;;;;;;;;10263881;28;20536;-73
2021/12/13 19:12:02;;;;;;;7.53;2.42;;;;;;;;;;10277773;28;20141;-72
2021/12/13 19:17:09;;;;;;;18.58;5.00;;;;;;;;;;10277926;28;20093;-72
2021/12/13 19:22:20;;;;;;;18.17;5.10;;;;;;;;;;10270998;28;20122;-72
2021/12/13 19:27:30;;;;;;;20.70;5.30;;;;;;;;;;10286758;28;20070;-73
2021/12/13 19:32:54;;;;;;;17.33;5.25;;;;;;;;;;10270904;28;20510;-75
2021/12/13 19:38:00;;;;;;;16.05;4.97;;;;;;;;;;10268012;28;20711;-74
2021/12/13 19:43:05;;;;;;;18.30;5.25;;;;;;;;;;10276855;28;20034;-73
2021/12/13 19:48:11;;;;;;;16.02;4.68;;;;;;;;;;10295094;28;20511;-73
2021/12/13 19:53:19;;;;;;;11.30;3.60;;;;;;;;;;10287608;28;20038;-74
2021/12/13 19:58:26;;;;;;;14.93;4.38;;;;;;;;;;10289770;28;20120;-72
2021/12/13 20:03:36;;;;;;;7.18;2.58;;;;;;;;;;10290031;28;20039;-73
2021/12/13 20:08:45;;;;;;;6.28;2.05;;;;;;;;;;10282385;28;20046;-74
2021/12/13 20:13:53;;;;;;;8.13;2.92;;;;;;;;;;10279363;28;20118;-73
2021/12/13 20:19:01;;;;;;;8.68;2.95;;;;;;;;;;10294507;28;20045;-73
2021/12/13 20:24:08;;;;;;;10.63;4.03;;;;;;;;;;10286213;28;20089;-75
2021/12/13 20:29:13;;;;;;;8.02;3.05;;;;;;;;;;10313370;28;20031;-72
2021/12/13 20:34:22;;;;;;;5.07;2.20;;;;;;;;;;10273268;28;20039;-72
2021/12/13 20:39:30;;;;;;;10.23;3.92;;;;;;;;;;10294965;28;20055;-73
2021/12/13 20:44:35;;;;;;;13.43;4.63;;;;;;;;;;10294325;28;20406;-71
2021/12/13 20:49:44;;;;;;;10.70;4.20;;;;;;;;;;10288493;28;20077;-73
2021/12/13 20:54:50;;;;;;;16.63;4.85;;;;;;;;;;10302323;28;20034;-73
2021/12/13 20:59:54;;;;;;;12.60;4.75;;;;;;;;;;10292020;28;20106;-73
2021/12/13 21:05:00;;;;;;;11.43;4.30;;;;;;;;;;10295086;28;20089;-72
2021/12/13 21:10:06;;;;;;;10.20;3.77;;;;;;;;;;10304647;28;20453;-74
2021/12/13 21:15:11;;;;;;;13.13;4.88;;;;;;;;;;10291835;28;20117;-73
2021/12/13 21:20:18;;;;;;;11.87;4.20;;;;;;;;;;10290194;28;20074;-73
2021/12/13 21:25:24;;;;;;;19.02;5.82;;;;;;;;;;10295323;28;20368;-72
2021/12/13 21:30:32;;;;;;;14.50;5.20;;;;;;;;;;10280655;28;20047;-72
2021/12/13 21:35:41;;;;;;;15.18;4.55;;;;;;;;;;10291204;28;20046;-70
2021/12/13 21:40:45;;;;;;;14.40;5.17;;;;;;;;;;10274111;28;20042;-72
2021/12/13 21:45:48;;;;;;;;;;;;;;;;;;10287103;28;20170;-72
2021/12/13 21:50:54;;;;;;;13.80;4.85;;;;;;;;;;10281715;28;19922;-71
2021/12/13 21:55:59;;;;;;;18.30;5.47;;;;;;;;;;10275166;28;20526;-72
2021/12/13 22:01:13;;;;;;;6.47;2.53;;;;;;;;;;10290889;28;20035;-72
2021/12/13 22:06:18;;;;;;;14.63;4.90;;;;;;;;;;10269679;28;20054;-74
2021/12/13 22:11:26;;;;;;;9.98;4.13;;;;;;;;;;10268023;28;20032;-73
2021/12/13 22:16:33;;;;;;;6.45;2.97;;;;;;;;;;10270610;28;20046;-74
2021/12/13 22:21:38;;;;;;;17.90;5.77;;;;;;;;;;10270603;28;20602;-73
2021/12/13 22:26:42;;;;;;;18.70;5.90;;;;;;;;;;10285162;28;20113;-73
2021/12/13 22:31:46;;;;;;;10.80;4.07;;;;;;;;;;10289530;28;20031;-74
2021/12/13 22:36:49;;;;;;;;;;;;;;;;;;10285425;28;20085;-73
2021/12/13 22:41:54;;;;;;;19.23;5.83;;;;;;;;;;10286980;28;20368;-73
2021/12/13 22:46:59;;;;;;;30.63;8.23;;;;;;;;;;10283259;28;20061;-72
2021/12/13 22:52:05;;;;;;;8.10;2.70;;;;;;;;;;10285922;28;20045;-73
2021/12/13 22:57:11;;;;;;;21.07;6.03;;;;;;;;;;10300523;28;20039;-75
2021/12/13 23:02:16;;;;;;;19.73;6.60;;;;;;;;;;10297073;28;20055;-73
2021/12/13 23:07:20;;;;;;;17.83;5.20;;;;;;;;;;10291498;28;20081;-73
2021/12/13 23:17:45;;;;;;;24.23;7.70;;;;;;;;;;10310999;28;20001;-73
2021/12/13 23:22:48;;;;;;;14.40;5.00;;;;;;;;;;10311405;28;20039;-73
2021/12/13 23:27:53;;;;;;;23.00;7.13;;;;;;;;;;10318154;28;20156;-74
2021/12/13 23:32:59;;;;;;;23.57;7.47;;;;;;;;;;10308795;28;20035;-74
2021/12/13 23:38:08;;;;;;;14.43;5.60;;;;;;;;;;10290290;28;20078;-75
2021/12/13 23:48:34;;;;;;;14.50;5.03;;;;;;;;;;10282526;28;20149;-74
2021/12/13 23:53:38;;;;;;;20.13;6.63;;;;;;;;;;10281680;28;20069;-74
2021/12/13 23:58:43;;;;;;;11.97;4.00;;;;;;;;;;10373546;23;20069;-70
